Latest Weather Observations for Southern Cross Airport

IDW60801

Issued at 6:35 pm WST Thursday 28 August 2014 (issued every 30 minutes, with the page automatically refreshed every 10 minutes)

About weather observations | Map of weather stations | Latest weather observations for WA | Other Formats
Station Details ID: 012320 Name: SOUTHERN CROSS AIRFIELD Lat: -31.24 Lon: 119.36 Height: 347.4 m
Data from the previous 72 hours. | See also: Recent months at Southern Cross Airport
Date/Time
WST
Temp
°C
App
Temp
°C
Dew
Point
Rel
Hum
%
Delta-T
°C
Wind Press
QNH
hPa
Press
MSL
hPa
Rain
since 9 am
mm
Dir
 
Spd
km/h
Gust
km/h
Spd
kts
Gust
kts
28/06:30pm 19.9 16.6 -1.2 24 9.3 WNW 6 6 3 3 1015.8 1015.9 0.0
28/06:00pm 22.7 19.2 -1.4 20 10.8 WNW 7 9 4 5 1015.7 1015.8 0.0
28/05:30pm 24.0 19.3 -1.8 18 11.6 WNW 13 17 7 9 1015.7 1015.8 0.0
28/05:00pm 25.7 21.1 -1.2 17 12.4 WNW 13 17 7 9 1015.6 1015.7 0.0
28/04:30pm 26.2 20.3 -0.8 17 12.6 WNW 20 24 11 13 1015.5 1015.6 0.0
28/04:00pm 25.4 19.0 -1.4 17 12.3 WNW 22 30 12 16 1015.6 1015.7 0.0
28/03:30pm 26.4 20.6 0.2 18 12.4 WNW 20 26 11 14 1015.6 1015.7 0.0
28/03:00pm 25.5 20.2 -0.5 18 12.1 WNW 17 20 9 11 1015.9 1016.0 0.0
28/02:30pm 25.8 20.9 -0.3 18 12.2 NNW 15 20 8 11 1015.9 1016.0 0.0
28/02:00pm 26.7 21.8 -0.3 17 12.7 NW 15 22 8 12 1016.1 1016.2 0.0
28/01:30pm 26.0 21.0 -0.9 17 12.5 NW 15 24 8 13 1016.4 1016.5 0.0
28/01:00pm 25.6 21.4 -1.2 17 12.3 NW 11 20 6 11 1016.7 1016.8 0.0
28/12:30pm 25.5 21.2 0.9 20 11.7 NNW 13 17 7 9 1017.0 1017.1 0.0
28/12:00pm 24.5 21.1 2.0 23 10.9 N 9 19 5 10 1017.4 1017.5 0.0
28/11:30am 23.9 20.9 0.9 22 10.9 NW 6 11 3 6 1018.0 1018.1 0.0
28/11:00am 22.7 19.6 3.8 29 9.3 N 9 13 5 7 1018.4 1018.5 0.0
28/10:30am 21.6 19.2 5.1 34 8.3 N 7 11 4 6 1018.8 1018.9 0.0
28/10:00am 20.0 18.1 9.0 49 5.9 N 9 11 5 6 1019.1 1019.2 0.0
28/09:30am 18.3 17.0 9.9 58 4.5 N 7 11 4 6 1019.2 1019.3 0.0
28/09:00am 16.5 14.8 9.7 64 3.6 N 9 13 5 7 1019.2 1019.3 0.0
28/08:30am 14.6 13.1 9.2 70 2.8 NNE 7 11 4 6 1019.2 1019.3 0.0
28/08:00am 12.3 11.7 7.6 73 2.3 CALM 0 0 0 0 1019.0 1019.1 0.0
28/07:30am 9.7 9.0 6.8 82 1.4 CALM 0 0 0 0 1019.0 1019.1 0.0
28/07:00am 6.5 5.2 4.0 84 1.1 CALM 0 0 0 0 1018.6 1018.7 0.0
28/06:30am 5.3 3.8 3.2 86 0.9 CALM 0 0 0 0 1018.2 1018.3 0.0
28/06:00am 5.2 2.9 2.7 84 1.0 ENE 4 7 2 4 1018.2 1018.3 0.0
28/05:30am 4.9 3.2 2.1 82 1.1 CALM 0 0 0 0 1018.3 1018.4 0.0
28/05:00am 6.0 4.6 3.5 84 1.1 CALM 0 0 0 0 1018.1 1018.2 0.0
28/04:30am 5.9 4.0 2.7 80 1.3 S 2 7 1 4 1018.0 1018.1 0.0
28/04:00am 6.0 4.5 3.2 82 1.2 CALM 0 0 0 0 1018.1 1018.2 0.0
28/03:30am 7.0 5.7 4.0 81 1.3 CALM 0 0 0 0 1018.1 1018.2 0.0
28/03:00am 7.0 5.5 3.1 76 1.7 CALM 0 0 0 0 1018.1 1018.2 0.0
28/02:30am 7.1 5.8 3.9 80 1.4 CALM 0 0 0 0 1018.6 1018.7 0.0
28/02:00am 7.8 6.6 4.7 81 1.4 CALM 0 0 0 0 1018.9 1019.0 0.0
28/01:30am 8.9 7.4 4.9 76 1.8 E 2 9 1 5 1018.8 1018.9 0.0
28/01:00am 10.3 8.2 5.9 74 2.1 SW 6 6 3 3 1019.3 1019.4 0.0
28/12:30am 11.1 9.0 6.6 74 2.2 SW 7 11 4 6 1019.4 1019.5 0.0
28/12:00am 10.6 8.0 6.2 74 2.1 SW 9 11 5 6 1019.3 1019.4 0.0
 
Date/Time
WST
Temp
°C
App
Temp
°C
Dew
Point
Rel
Hum
%
Delta-T
°C
Wind Press
QNH
hPa
Press
MSL
hPa
Rain
since 9 am
mm
Dir
 
Spd
km/h
Gust
km/h
Spd
kts
Gust
kts
27/11:30pm 11.6 9.6 6.1 69 2.6 ESE 6 7 3 4 1019.5 1019.6 0.0
27/11:00pm 14.3 12.1 7.8 65 3.3 SSE 9 11 5 6 1019.6 1019.7 0.0
27/10:30pm 14.5 13.7 8.2 66 3.2 SSE 2 6 1 3 1019.9 1020.0 0.0
27/10:00pm 15.1 12.7 6.9 58 4.1 SE 9 13 5 7 1020.2 1020.4 0.0
27/09:30pm 16.6 13.2 7.5 55 4.6 S 15 19 8 10 1020.3 1020.5 0.0
27/09:00pm 13.3 9.8 3.4 51 4.5 SSW 11 30 6 16 1020.2 1020.4 0.0
27/08:30pm 14.1 11.8 3.0 47 5.1 SSW 4 6 2 3 1019.6 1019.7 0.0
27/08:00pm 14.3 11.8 3.7 49 4.9 SSE 6 9 3 5 1019.5 1019.6 0.0
27/07:30pm 15.3 12.5 3.1 44 5.6 ESE 7 9 4 5 1019.1 1019.2 0.0
27/07:00pm 17.6 14.2 4.2 41 6.4 SE 11 13 6 7 1018.7 1018.8 0.0
27/06:30pm 18.1 14.4 2.4 35 7.3 ESE 11 13 6 7 1018.2 1018.3 0.0
27/06:00pm 20.3 17.6 3.5 33 8.1 SE 7 9 4 5 1017.9 1018.0 0.0
27/05:30pm 22.9 20.9 4.4 30 9.3 WNW 4 9 2 5 1017.9 1018.0 0.0
27/05:00pm 24.8 23.0 3.5 25 10.6 N 2 6 1 3 1018.1 1018.2 0.0
27/04:30pm 24.6 21.8 3.3 25 10.6 NNE 7 11 4 6 1018.1 1018.2 0.0
27/04:00pm 25.2 22.2 4.3 26 10.6 NNE 9 15 5 8 1018.1 1018.2 0.0
27/03:30pm 25.1 22.1 5.8 29 10.1 N 11 17 6 9 1018.5 1018.6 0.0
27/03:00pm 24.3 21.0 6.6 32 9.3 NNE 13 19 7 10 1018.8 1018.9 0.0
27/02:30pm 23.8 20.1 7.8 36 8.6 N 17 24 9 13 1018.8 1018.9 0.0
27/02:00pm 22.9 19.1 7.4 37 8.2 NNE 17 22 9 12 1018.9 1019.0 0.0
27/01:30pm 23.5 19.8 8.0 37 8.3 NNE 17 22 9 12 1019.0 1019.1 0.0
27/01:00pm 22.5 18.5 8.2 40 7.6 NNE 19 24 10 13 1019.3 1019.4 0.0
27/12:30pm 23.1 19.5 9.8 43 7.4 NNE 19 22 10 12 1019.8 1019.9 0.0
27/12:00pm 22.4 20.3 9.9 45 6.9 ENE 11 22 6 12 1020.4 1020.6 0.0
27/11:30am 21.7 19.3 9.9 47 6.5 ENE 13 20 7 11 1021.0 1021.1 0.0
27/11:00am 19.7 17.7 10.1 54 5.2 NNE 11 17 6 9 1021.5 1021.6 0.0
27/10:30am 19.2 16.5 10.2 56 4.9 NE 15 20 8 11 1022.0 1022.1 0.0
27/10:00am 18.0 14.5 10.1 60 4.3 NE 19 24 10 13 1022.5 1022.7 0.0
27/09:30am 17.5 14.3 10.1 62 4.0 NE 17 26 9 14 1022.8 1023.0 0.0
27/09:00am 17.1 13.1 10.5 65 3.6 ENE 22 28 12 15 1023.0 1023.2 0.0
27/08:30am 16.0 12.4 10.7 71 2.9 ENE 20 30 11 16 1022.8 1023.0 0.0
27/08:00am 14.2 12.4 10.8 80 1.8 E 11 15 6 8 1022.9 1023.1 0.0
27/07:30am 11.2 10.4 9.6 90 0.8 ESE 4 6 2 3 1022.8 1023.0 0.0
27/07:00am 10.0 8.9 8.3 89 0.8 E 4 7 2 4 1022.7 1022.9 0.0
27/06:30am 10.4 8.8 8.8 90 0.8 E 7 9 4 5 1022.5 1022.7 0.0
27/06:00am 10.5 8.6 8.9 90 0.8 E 9 11 5 6 1022.3 1022.4 0.0
27/05:30am 11.4 9.7 9.7 89 0.9 E 9 11 5 6 1022.3 1022.4 0.0
27/05:00am 11.9 10.6 10.0 88 1.0 E 7 9 4 5 1022.3 1022.4 0.0
27/04:30am 12.5 10.1 10.2 86 1.2 ENE 13 17 7 9 1022.2 1022.3 0.0
27/04:00am 12.6 9.5 10.3 86 1.2 E 17 26 9 14 1021.7 1021.8 0.0
27/03:30am 12.5 9.8 10.4 87 1.1 E 15 24 8 13 1022.1 1022.2 0.0
27/03:00am 12.6 10.7 10.5 87 1.1 E 11 19 6 10 1022.3 1022.4 0.0
27/02:30am 12.4 10.4 10.3 87 1.1 E 11 19 6 10 1022.3 1022.4 0.0
27/02:00am 12.3 9.9 10.2 87 1.1 E 13 20 7 11 1022.5 1022.7 0.0
27/01:30am 11.8 9.4 9.9 88 1.0 SE 13 19 7 10 1022.6 1022.8 0.0
27/01:00am 12.1 10.4 10.0 87 1.1 SE 9 17 5 9 1022.7 1022.9 0.0
27/12:30am 12.4 8.8 10.0 85 1.3 SE 19 24 10 13 1022.6 1022.8 0.0
27/12:00am 12.9 8.8 10.1 83 1.5 SE 22 28 12 15 1022.6 1022.8 0.0
 
Date/Time
WST
Temp
°C
App
Temp
°C
Dew
Point
Rel
Hum
%
Delta-T
°C
Wind Press
QNH
hPa
Press
MSL
hPa
Rain
since 9 am
mm
Dir
 
Spd
km/h
Gust
km/h
Spd
kts
Gust
kts
26/11:30pm 13.2 10.0 9.8 80 1.8 SE 17 24 9 13 1022.9 1023.1 0.0
26/11:00pm 13.2 10.1 8.9 75 2.2 SE 15 19 8 10 1022.9 1023.1 0.0
26/10:30pm 14.4 10.3 8.8 69 2.9 SE 20 26 11 14 1023.0 1023.2 0.0
26/10:00pm 13.8 11.6 7.8 67 3.0 S 9 13 5 7 1023.1 1023.3 0.0
26/09:30pm 12.4 9.7 5.8 64 3.2 S 9 13 5 7 1022.9 1023.1 0.0
26/09:00pm 13.4 11.3 6.0 61 3.6 S 6 6 3 3 1023.0 1023.2 0.0
26/08:30pm 14.5 12.9 7.8 64 3.4 SE 6 9 3 5 1022.9 1023.1 0.0
26/08:00pm 15.4 12.9 6.7 56 4.3 SE 9 9 5 5 1022.8 1023.0 0.0
26/07:30pm 15.5 13.5 6.2 54 4.6 SE 6 7 3 4 1022.7 1022.9 0.0
26/07:00pm 17.7 15.7 7.2 50 5.3 SSE 7 11 4 6 1022.4 1022.5 0.0
26/06:30pm 19.0 16.5 8.1 49 5.7 S 11 13 6 7 1022.1 1022.2 0.0
26/06:00pm 19.8 17.3 8.2 47 6.1 SSW 11 13 6 7 1021.8 1021.9 0.0
26/05:30pm 21.7 18.9 8.6 43 7.0 SW 13 17 7 9 1021.6 1021.7 0.0
26/05:00pm 22.6 19.4 8.3 40 7.7 WSW 15 20 8 11 1021.6 1021.7 0.0
26/04:30pm 23.4 20.4 7.9 37 8.3 WNW 13 19 7 10 1021.4 1021.5 0.0
26/04:00pm 23.6 20.5 8.8 39 8.0 SSW 15 22 8 12 1021.4 1021.5 0.0
26/03:30pm 24.1 21.4 8.9 38 8.3 SSW 13 24 7 13 1021.3 1021.4 0.0
26/03:00pm 24.2 20.8 9.0 38 8.3 SW 17 30 9 16 1021.4 1021.5 0.0
26/02:30pm 24.2 20.6 9.8 40 8.0 SW 19 30 10 16 1021.5 1021.6 0.0
26/02:00pm 24.3 21.8 9.8 40 8.0 WSW 13 24 7 13 1021.6 1021.7 0.0
26/01:30pm 24.2 21.3 9.8 40 8.0 W 15 26 8 14 1021.8 1021.9 0.0
26/01:00pm 23.4 19.4 9.0 40 7.8 WSW 20 30 11 16 1022.1 1022.2 0.0
26/12:30pm 23.3 19.6 9.3 41 7.7 W 19 24 10 13 1022.4 1022.5 0.0
26/12:00pm 22.5 19.5 9.3 43 7.2 WNW 15 24 8 13 1022.8 1023.0 0.0
26/11:30am 21.9 18.0 9.4 45 6.8 WSW 20 26 11 14 1023.3 1023.5 0.0
26/11:00am 21.1 17.3 9.0 46 6.5 WSW 19 24 10 13 1023.4 1023.6 0.0
26/10:30am 20.0 16.9 9.0 49 5.9 WSW 15 24 8 13 1023.8 1023.9 0.0
26/10:00am 19.6 16.3 8.0 47 6.1 WSW 15 20 8 11 1024.0 1024.1 0.0
26/09:30am 19.3 15.0 6.8 44 6.4 WSW 19 24 10 13 1024.2 1024.3 0.0
26/09:00am 16.9 15.9 5.5 47 5.6 CALM 0 7 0 4 1024.1 1024.2 0.0
26/08:30am 14.0 12.7 4.3 52 4.5 CALM 0 0 0 0 1024.0 1024.1 0.0
26/08:00am 10.6 9.1 3.2 60 3.3 CALM 0 0 0 0 1023.8 1023.9 0.0
26/07:30am 8.2 6.5 2.0 65 2.6 CALM 0 0 0 0 1023.4 1023.6 0.0
26/07:00am 6.6 4.7 0.5 65 2.4 CALM 0 0 0 0 1023.1 1023.3 0.0
26/06:30am 6.1 4.1 -0.2 64 2.5 CALM 0 0 0 0 1022.7 1022.9 0.0
26/06:00am 6.1 4.1 0.0 65 2.4 CALM 0 0 0 0 1022.3 1022.4 0.0
26/05:30am 6.2 4.2 0.1 65 2.4 CALM 0 0 0 0 1021.7 1021.8 0.0
26/05:00am 6.8 4.8 -0.4 60 2.8 CALM 0 0 0 0 1021.6 1021.7 0.0
26/04:30am 7.5 5.7 0.9 63 2.7 CALM 0 0 0 0 1021.6 1021.7 0.0
26/04:00am 7.8 6.0 1.0 62 2.8 CALM 0 0 0 0 1021.5 1021.6 0.0
26/03:30am 7.0 5.0 0.2 62 2.7 CALM 0 0 0 0 1021.5 1021.6 0.0
26/03:00am 8.1 6.2 0.6 59 3.0 CALM 0 0 0 0 1021.4 1021.5 0.0
26/02:30am 8.2 6.3 0.4 58 3.2 CALM 0 0 0 0 1021.5 1021.6 0.0
26/02:00am 8.2 6.1 -0.5 54 3.4 CALM 0 0 0 0 1021.5 1021.6 0.0
26/01:30am 8.4 6.3 -0.9 52 3.7 CALM 0 0 0 0 1021.4 1021.5 0.0
26/01:00am 9.0 7.1 0.7 56 3.4 CALM 0 0 0 0 1021.7 1021.8 0.0
26/12:30am 9.5 7.5 -0.1 51 3.9 CALM 0 0 0 0 1021.7 1021.8 0.0
26/12:00am 10.8 7.9 1.4 52 4.0 SE 6 7 3 4 1022.0 1022.1 0.0
 
Date/Time
WST
Temp
°C
App
Temp
°C
Dew
Point
Rel
Hum
%
Delta-T
°C
Wind Press
QNH
hPa
Press
MSL
hPa
Rain
since 9 am
mm
Dir
 
Spd
km/h
Gust
km/h
Spd
kts
Gust
kts
25/11:30pm 11.2 8.5 0.6 48 4.5 SE 4 7 2 4 1021.8 1021.9 0.0
25/11:00pm 12.8 9.7 1.2 45 5.0 SE 7 9 4 5 1022.0 1022.1 0.0
25/10:30pm 14.0 10.8 0.6 40 5.8 SE 7 7 4 4 1022.2 1022.3 0.0
25/10:00pm 16.4 13.3 1.3 36 6.7 S 7 9 4 5 1022.4 1022.5 0.0
25/09:30pm 17.4 13.9 1.4 34 7.2 S 9 11 5 6 1022.4 1022.5 0.0
25/09:00pm 18.1 14.6 1.2 32 7.6 S 9 11 5 6 1022.4 1022.5 0.0
25/08:30pm 17.7 14.6 -0.1 30 7.8 SSW 6 7 3 4 1022.3 1022.4 0.0
25/08:00pm 19.1 15.5 0.7 29 8.3 SSW 9 11 5 6 1022.1 1022.2 0.0
25/07:30pm 19.3 16.2 0.4 28 8.5 S 6 7 3 4 1021.9 1022.0 0.0
25/07:00pm 21.1 17.9 0.9 26 9.3 SW 7 11 4 6 1021.5 1021.6 0.0

Other Formats:

Comma delimited format used in spreadsheet applications
http://www.bom.gov.au/fwo/IDW60801/IDW60801.95634.axf

JavaScript Object Notation format (JSON) in row-major order
http://www.bom.gov.au/fwo/IDW60801/IDW60801.95634.json